createdAt,value
2022-08-02T00:01:07.744Z,21.83
2022-08-02T00:02:18.431Z,21.76
2022-08-02T00:03:27.498Z,21.56
2022-08-02T00:04:35.490Z,21.56
2022-08-02T00:05:43.313Z,21.61
2022-08-02T00:07:02.030Z,21.54
2022-08-02T00:08:09.552Z,21.35
2022-08-02T00:09:16.889Z,21.13
2022-08-02T00:10:25.153Z,21.30
2022-08-02T00:11:32.180Z,21.21
2022-08-02T00:12:38.816Z,21.23
2022-08-02T00:13:45.868Z,21.36
2022-08-02T00:14:53.933Z,21.26
2022-08-02T00:16:01.011Z,21.12
2022-08-02T00:17:08.141Z,21.22
2022-08-02T00:18:15.972Z,21.29
2022-08-02T00:19:25.805Z,21.02
2022-08-02T00:20:33.259Z,20.93
2022-08-02T00:21:41.527Z,20.73
2022-08-02T00:22:48.432Z,20.86
2022-08-02T00:24:27.856Z,21.03
2022-08-02T00:25:24.974Z,21.04
2022-08-02T00:26:31.190Z,20.94
2022-08-02T00:27:39.244Z,20.97
2022-08-02T00:28:47.076Z,21.00
2022-08-02T00:29:56.898Z,21.24
2022-08-02T00:31:03.625Z,21.41
2022-08-02T00:32:13.478Z,21.60
2022-08-02T00:34:26.907Z,21.64
2022-08-02T00:34:50.220Z,21.66
2022-08-02T00:35:56.856Z,21.52
2022-08-02T00:37:04.815Z,21.40
2022-08-02T00:38:11.559Z,21.49
2022-08-02T00:39:33.666Z,21.23
2022-08-02T00:40:48.812Z,21.11
2022-08-02T00:41:57.318Z,21.09
2022-08-02T00:43:08.964Z,21.14
2022-08-02T00:44:18.399Z,21.04
2022-08-02T00:46:02.048Z,21.06
2022-08-02T00:46:53.096Z,20.87
2022-08-02T00:48:02.918Z,21.05
2022-08-02T00:49:10.735Z,21.37
2022-08-02T00:50:21.882Z,21.32
2022-08-02T00:51:28.086Z,21.21
2022-08-02T00:52:37.085Z,21.23
2022-08-02T00:53:45.199Z,21.41
2022-08-02T00:54:52.018Z,21.64
2022-08-02T00:55:58.472Z,21.89
2022-08-02T00:57:05.742Z,22.38
2022-08-02T00:58:13.920Z,22.61
2022-08-02T00:59:20.889Z,22.58
2022-08-02T01:00:29.877Z,22.58
2022-08-02T01:01:54.809Z,22.22
2022-08-02T01:03:07.296Z,21.85
2022-08-02T01:04:15.498Z,21.54
2022-08-02T01:06:09.157Z,21.49
2022-08-02T01:07:12.072Z,21.76
2022-08-02T01:08:29.457Z,22.09
2022-08-02T01:09:39.110Z,22.02
2022-08-02T01:10:44.966Z,21.74
2022-08-02T01:11:52.457Z,21.51
2022-08-02T01:12:58.478Z,21.59
2022-08-02T01:14:13.001Z,21.48
2022-08-02T01:15:19.459Z,21.53
2022-08-02T01:16:30.174Z,21.66
2022-08-02T01:17:50.744Z,21.75
2022-08-02T01:19:01.965Z,22.03
2022-08-02T01:20:18.769Z,22.17
2022-08-02T01:22:01.915Z,22.37
2022-08-02T01:23:44.775Z,22.80
2022-08-02T01:25:16.427Z,22.47
2022-08-02T01:26:45.577Z,22.58
2022-08-02T01:28:34.026Z,22.64
2022-08-02T01:29:45.203Z,22.35
2022-08-02T01:30:53.164Z,22.39
2022-08-02T01:32:15.502Z,22.58
2022-08-02T01:33:23.552Z,23.00
2022-08-02T01:34:51.035Z,23.29
2022-08-02T01:35:57.965Z,23.71
2022-08-02T01:37:48.214Z,24.32
2022-08-02T01:38:55.642Z,24.90
2022-08-02T01:40:09.765Z,25.33
2022-08-02T01:41:20.379Z,25.68
2022-08-02T01:42:27.798Z,25.57
2022-08-02T01:43:35.789Z,25.81
2022-08-02T01:44:43.942Z,26.14
2022-08-02T01:45:52.347Z,26.06
2022-08-02T01:47:01.229Z,26.24
2022-08-02T01:48:08.970Z,26.76
2022-08-02T01:49:19.379Z,26.88
2022-08-02T01:50:35.584Z,27.05
2022-08-02T01:52:05.187Z,27.31
2022-08-02T01:53:13.635Z,27.81
2022-08-02T01:54:21.293Z,27.88
2022-08-02T01:55:58.102Z,28.11
2022-08-02T01:57:07.607Z,28.14
2022-08-02T01:58:16.072Z,28.44
2022-08-02T01:59:23.668Z,28.56
2022-08-02T02:00:32.382Z,28.40
2022-08-02T02:01:38.518Z,28.26
2022-08-02T02:02:46.930Z,28.27
2022-08-02T02:03:53.313Z,28.31
2022-08-02T02:05:00.860Z,28.17
2022-08-02T02:06:09.333Z,28.46
2022-08-02T02:07:16.955Z,28.13
2022-08-02T02:08:31.011Z,27.96
2022-08-02T02:09:51.001Z,28.23
2022-08-02T02:12:11.001Z,28.58
2022-08-02T02:12:28.177Z,28.89
2022-08-02T02:13:35.952Z,28.90
2022-08-02T02:14:51.763Z,28.99
2022-08-02T02:16:03.349Z,29.24
2022-08-02T02:18:11.529Z,29.38
2022-08-02T02:18:42.091Z,29.48
2022-08-02T02:19:50.265Z,30.04
2022-08-02T02:20:57.213Z,30.36
2022-08-02T02:22:03.592Z,30.67
2022-08-02T02:23:10.751Z,30.85
2022-08-02T02:24:25.707Z,30.76
2022-08-02T02:25:41.799Z,30.71
2022-08-02T02:26:54.053Z,30.95
2022-08-02T02:28:06.716Z,31.08
2022-08-02T02:29:13.778Z,31.17
2022-08-02T02:30:24.235Z,31.65
2022-08-02T02:31:35.234Z,31.50
2022-08-02T02:32:42.472Z,31.74
2022-08-02T02:33:58.855Z,31.84
2022-08-02T02:35:06.616Z,32.03
2022-08-02T02:36:17.981Z,32.34
2022-08-02T02:37:26.033Z,32.34
2022-08-02T02:38:34.172Z,32.51
2022-08-02T02:39:41.543Z,32.54
2022-08-02T02:40:52.199Z,32.68
2022-08-02T02:42:04.337Z,32.79
2022-08-02T02:43:13.293Z,33.21
2022-08-02T02:44:23.170Z,33.13
2022-08-02T02:45:32.004Z,33.22
2022-08-02T02:46:40.141Z,33.29
2022-08-02T02:47:47.294Z,33.52
2022-08-02T02:48:54.274Z,33.74
2022-08-02T02:50:01.536Z,33.72
2022-08-02T02:51:13.953Z,33.69
2022-08-02T02:52:23.330Z,34.00
2022-08-02T02:53:30.753Z,34.05
2022-08-02T02:55:01.249Z,34.09
2022-08-02T02:56:09.257Z,34.24
2022-08-02T02:57:16.763Z,34.14
2022-08-02T02:58:28.788Z,34.42
2022-08-02T02:59:49.087Z,34.31
2022-08-02T03:01:18.905Z,34.27
2022-08-02T03:02:26.329Z,34.60
2022-08-02T03:03:33.306Z,34.65
2022-08-02T03:04:57.012Z,34.82
2022-08-02T03:06:14.813Z,34.95
2022-08-02T03:07:25.005Z,35.00
2022-08-02T03:08:33.477Z,35.05
2022-08-02T03:09:44.263Z,34.94
2022-08-02T03:10:56.797Z,35.06
2022-08-02T03:12:04.217Z,35.15
2022-08-02T03:13:11.741Z,35.41
2022-08-02T03:14:20.243Z,35.45
2022-08-02T03:15:29.072Z,35.35
2022-08-02T03:16:37.287Z,35.46
2022-08-02T03:17:47.304Z,35.48
2022-08-02T03:18:54.471Z,35.46
2022-08-02T03:20:01.427Z,35.47
2022-08-02T03:21:15.635Z,35.79
2022-08-02T03:22:23.473Z,35.64
2022-08-02T03:23:31.137Z,35.43
2022-08-02T03:24:39.423Z,35.69
2022-08-02T03:25:46.402Z,35.93
2022-08-02T03:26:53.296Z,35.94
2022-08-02T03:28:00.738Z,36.13
2022-08-02T03:29:10.332Z,36.15
2022-08-02T03:30:18.044Z,35.93
2022-08-02T03:31:24.962Z,36.24
2022-08-02T03:32:32.222Z,36.50
2022-08-02T03:33:38.944Z,36.57
2022-08-02T03:34:47.482Z,36.43
2022-08-02T03:35:57.885Z,36.67
2022-08-02T03:37:07.224Z,36.68
2022-08-02T03:38:15.705Z,36.92
2022-08-02T03:39:25.665Z,36.82
2022-08-02T03:40:34.850Z,37.10
2022-08-02T03:41:41.800Z,37.37
2022-08-02T03:42:49.311Z,37.42
2022-08-02T03:43:57.516Z,37.32
2022-08-02T03:45:08.696Z,37.55
2022-08-02T03:46:26.195Z,37.81
2022-08-02T03:47:34.910Z,37.70
2022-08-02T03:48:43.175Z,37.87
2022-08-02T03:49:50.475Z,37.83
2022-08-02T03:50:58.667Z,37.83
2022-08-02T03:52:06.382Z,37.99
2022-08-02T03:53:19.855Z,38.41
2022-08-02T03:54:33.049Z,38.50
2022-08-02T03:55:55.826Z,38.76
2022-08-02T03:57:02.643Z,39.05
2022-08-02T03:58:10.913Z,39.52
2022-08-02T03:59:18.729Z,39.60
2022-08-02T04:00:25.895Z,39.59
2022-08-02T04:01:32.248Z,39.44
2022-08-02T04:02:38.303Z,39.58
2022-08-02T04:03:44.517Z,39.73
2022-08-02T04:04:50.488Z,40.08
2022-08-02T04:06:03.958Z,40.13
2022-08-02T04:07:13.502Z,40.17
2022-08-02T04:08:36.301Z,40.31
2022-08-02T04:09:46.535Z,40.41
2022-08-02T04:11:10.477Z,40.54
2022-08-02T04:12:17.999Z,40.73
2022-08-02T04:13:29.883Z,40.79
2022-08-02T04:14:41.849Z,40.79
2022-08-02T04:15:48.897Z,40.87
2022-08-02T04:17:01.509Z,41.13
2022-08-02T04:18:08.388Z,41.14
2022-08-02T04:19:28.660Z,41.03
2022-08-02T04:20:37.539Z,41.19
2022-08-02T04:21:51.191Z,41.47
2022-08-02T04:23:27.017Z,41.27
2022-08-02T04:24:41.794Z,41.57
2022-08-02T04:25:48.446Z,41.38
2022-08-02T04:27:19.239Z,41.40
2022-08-02T04:28:29.854Z,41.44
2022-08-02T04:29:37.290Z,41.57
2022-08-02T04:30:43.994Z,41.61
2022-08-02T04:31:52.193Z,41.73
2022-08-02T04:32:58.021Z,41.92
2022-08-02T04:34:04.621Z,41.77
2022-08-02T04:35:19.102Z,41.77
2022-08-02T04:36:30.899Z,41.95
2022-08-02T04:38:09.624Z,41.94
2022-08-02T04:39:09.729Z,42.31
2022-08-02T04:40:17.286Z,42.23
2022-08-02T04:41:41.043Z,41.99
2022-08-02T04:42:54.002Z,41.94
2022-08-02T04:44:00.789Z,42.20
2022-08-02T04:45:09.960Z,42.12
2022-08-02T04:46:24.878Z,42.07
2022-08-02T04:48:02.072Z,42.23
2022-08-02T04:49:03.024Z,42.25
2022-08-02T04:50:16.967Z,42.25
2022-08-02T04:51:37.733Z,42.40
2022-08-02T04:52:46.103Z,42.39
2022-08-02T04:53:52.811Z,42.41
2022-08-02T04:55:13.298Z,42.37
2022-08-02T04:56:21.386Z,42.41
2022-08-02T04:57:52.350Z,42.53
2022-08-02T04:59:02.250Z,42.57
2022-08-02T05:00:09.645Z,42.77
2022-08-02T05:01:16.825Z,42.61
2022-08-02T05:02:24.666Z,42.63
2022-08-02T05:03:32.209Z,42.68
2022-08-02T05:04:39.830Z,42.81
2022-08-02T05:05:47.220Z,42.79
2022-08-02T05:06:54.102Z,42.94
2022-08-02T05:08:01.040Z,42.90
2022-08-02T05:09:07.829Z,42.82
2022-08-02T05:10:16.353Z,42.94
2022-08-02T05:11:30.090Z,43.09
2022-08-02T05:12:45.740Z,42.93
2022-08-02T05:13:58.723Z,42.96
2022-08-02T05:15:07.236Z,42.98
2022-08-02T05:16:20.336Z,42.96
2022-08-02T05:17:38.822Z,43.01
2022-08-02T05:18:57.184Z,43.04
2022-08-02T05:20:06.140Z,43.27
2022-08-02T05:21:12.957Z,43.33
2022-08-02T05:22:22.523Z,43.26
2022-08-02T05:23:28.999Z,43.50
2022-08-02T05:24:37.164Z,43.56
2022-08-02T05:25:44.160Z,43.90
2022-08-02T05:26:52.725Z,44.10
2022-08-02T05:27:58.858Z,43.94
2022-08-02T05:29:07.243Z,44.00
2022-08-02T05:30:14.627Z,44.16
2022-08-02T05:31:22.648Z,44.31
2022-08-02T05:32:29.927Z,44.40
2022-08-02T05:33:41.029Z,44.64
2022-08-02T05:34:48.456Z,44.59
2022-08-02T05:35:55.670Z,44.70
2022-08-02T05:37:09.024Z,44.99
2022-08-02T05:38:20.256Z,44.71
2022-08-02T05:39:34.112Z,44.72
2022-08-02T05:40:54.533Z,45.19
2022-08-02T05:42:05.101Z,45.50
2022-08-02T05:43:17.506Z,45.98
2022-08-02T05:44:25.921Z,45.72
2022-08-02T05:45:36.844Z,45.70
2022-08-02T05:46:45.151Z,45.85
2022-08-02T05:47:54.122Z,45.84
2022-08-02T05:49:02.338Z,45.65
2022-08-02T05:50:10.031Z,46.02
2022-08-02T05:51:32.400Z,46.31
2022-08-02T05:52:48.494Z,46.16
2022-08-02T05:54:15.443Z,46.49
2022-08-02T05:55:29.429Z,46.35
2022-08-02T05:56:39.518Z,46.22
2022-08-02T05:58:14.846Z,46.28
2022-08-02T05:59:55.317Z,46.46
2022-08-02T06:01:02.636Z,46.58
2022-08-02T06:02:33.904Z,46.67
2022-08-02T06:03:47.513Z,47.36
2022-08-02T06:05:14.145Z,46.85
2022-08-02T06:06:24.070Z,46.67
2022-08-02T06:07:30.177Z,47.12
2022-08-02T06:09:09.483Z,47.34
2022-08-02T06:10:17.410Z,47.25
2022-08-02T06:11:25.253Z,47.28
2022-08-02T06:12:31.382Z,47.63
2022-08-02T06:13:37.467Z,47.84
2022-08-02T06:14:43.688Z,48.24
2022-08-02T06:15:53.536Z,48.66
2022-08-02T06:17:06.017Z,49.19
2022-08-02T06:18:12.153Z,49.01
2022-08-02T06:19:20.864Z,49.28
2022-08-02T06:20:27.180Z,49.63
2022-08-02T06:22:33.203Z,50.10
2022-08-02T06:23:01.910Z,49.72
2022-08-02T06:24:09.668Z,50.20
2022-08-02T06:25:49.757Z,50.11
2022-08-02T06:26:42.802Z,50.50
2022-08-02T06:27:49.316Z,50.42
2022-08-02T06:28:56.596Z,50.51
2022-08-02T06:30:02.364Z,50.30
2022-08-02T06:31:09.594Z,50.79
2022-08-02T06:32:17.503Z,50.64
2022-08-02T06:33:25.647Z,50.66
2022-08-02T06:34:31.829Z,51.30
2022-08-02T06:36:02.306Z,51.44
2022-08-02T06:37:16.031Z,51.42
2022-08-02T06:38:26.481Z,51.70
2022-08-02T06:39:50.452Z,51.72
2022-08-02T06:41:02.506Z,52.16
2022-08-02T06:42:12.724Z,51.93
2022-08-02T06:43:53.673Z,52.34
2022-08-02T06:45:02.713Z,51.64
2022-08-02T06:46:57.245Z,51.45
2022-08-02T06:47:39.753Z,51.67
2022-08-02T06:48:46.594Z,51.94
2022-08-02T06:49:54.627Z,52.42
2022-08-02T06:51:00.974Z,51.92
2022-08-02T06:52:07.108Z,52.13
2022-08-02T06:53:13.125Z,52.27
2022-08-02T06:54:22.228Z,52.40
2022-08-02T06:55:32.757Z,52.49
2022-08-02T06:56:51.320Z,52.31
2022-08-02T06:58:00.936Z,52.33
2022-08-02T06:59:10.299Z,52.38
2022-08-02T07:00:18.532Z,52.68
2022-08-02T07:01:27.912Z,52.33
2022-08-02T07:02:47.521Z,52.38
2022-08-02T07:03:53.587Z,52.55
2022-08-02T07:05:02.799Z,53.03
2022-08-02T07:06:10.678Z,52.70
2022-08-02T07:07:18.029Z,53.04
2022-08-02T07:08:24.988Z,53.21
2022-08-02T07:09:31.466Z,53.18
2022-08-02T07:10:37.172Z,53.23
2022-08-02T07:11:46.300Z,53.27
2022-08-02T07:12:59.915Z,53.19
2022-08-02T07:14:08.941Z,53.52
2022-08-02T07:15:17.086Z,53.38
2022-08-02T07:16:24.814Z,53.94
2022-08-02T07:17:33.692Z,54.00
2022-08-02T07:18:40.970Z,53.95
2022-08-02T07:19:46.975Z,54.18
2022-08-02T07:20:52.691Z,54.43
2022-08-02T07:22:00.863Z,54.25
2022-08-02T07:23:08.026Z,54.52
2022-08-02T07:24:15.413Z,54.91
2022-08-02T07:25:21.107Z,55.25
2022-08-02T07:26:29.267Z,55.12
2022-08-02T07:27:36.741Z,55.64
2022-08-02T07:28:42.811Z,55.47
2022-08-02T07:29:48.752Z,54.92
2022-08-02T07:30:56.080Z,55.64
2022-08-02T07:32:05.908Z,55.64
2022-08-02T07:33:37.922Z,55.63
2022-08-02T07:34:42.626Z,55.96
2022-08-02T07:35:50.266Z,56.22
2022-08-02T07:36:58.252Z,55.76
2022-08-02T07:38:07.160Z,56.12
2022-08-02T07:39:13.821Z,56.20
2022-08-02T07:40:21.676Z,55.85
2022-08-02T07:41:28.243Z,55.82
2022-08-02T07:42:34.732Z,55.96
2022-08-02T07:43:41.760Z,56.60
2022-08-02T07:44:49.318Z,56.72
2022-08-02T07:45:57.285Z,56.48
2022-08-02T07:47:07.858Z,56.61
2022-08-02T07:48:16.168Z,56.66
2022-08-02T07:49:22.882Z,56.72
2022-08-02T07:50:30.723Z,57.15
2022-08-02T07:51:39.873Z,57.13
2022-08-02T07:52:47.006Z,57.09
2022-08-02T07:54:02.568Z,57.31
2022-08-02T07:55:11.765Z,57.30
2022-08-02T07:56:19.212Z,57.14
2022-08-02T07:57:27.147Z,57.04
2022-08-02T07:58:32.965Z,57.16
2022-08-02T07:59:39.001Z,57.45
2022-08-02T08:00:47.992Z,57.72
2022-08-02T08:01:53.625Z,57.52
2022-08-02T08:03:00.093Z,57.57
2022-08-02T08:04:06.749Z,57.40
2022-08-02T08:05:13.106Z,57.32
2022-08-02T08:06:28.653Z,57.20
2022-08-02T08:07:36.761Z,57.14
2022-08-02T08:08:44.313Z,56.86
2022-08-02T08:09:56.311Z,56.72
2022-08-02T08:11:04.097Z,56.76
2022-08-02T08:12:14.163Z,57.00
2022-08-02T08:13:21.244Z,57.52
2022-08-02T08:14:27.391Z,57.48
2022-08-02T08:15:33.223Z,57.52
2022-08-02T08:16:39.595Z,57.30
2022-08-02T08:17:45.714Z,57.48
2022-08-02T08:18:51.904Z,57.40
2022-08-02T08:19:58.850Z,57.29
2022-08-02T08:21:05.041Z,57.20
2022-08-02T08:22:11.463Z,57.47
2022-08-02T08:23:22.155Z,57.81
2022-08-02T08:24:29.857Z,57.80
2022-08-02T08:25:41.228Z,57.36
2022-08-02T08:26:49.012Z,57.47
2022-08-02T08:28:00.768Z,57.04
2022-08-02T08:29:08.409Z,57.50
2022-08-02T08:30:19.229Z,57.59
2022-08-02T08:31:27.040Z,57.69
2022-08-02T08:32:36.186Z,57.86
2022-08-02T08:33:42.402Z,57.88
2022-08-02T08:34:48.332Z,57.81
2022-08-02T08:35:54.443Z,57.73
2022-08-02T08:37:01.280Z,57.78
2022-08-02T08:38:08.053Z,57.79
2022-08-02T08:39:14.108Z,57.81
2022-08-02T08:40:26.104Z,57.77
2022-08-02T08:41:31.940Z,57.68
2022-08-02T08:42:40.056Z,57.96
2022-08-02T08:43:51.401Z,57.62
2022-08-02T08:45:01.330Z,57.36
2022-08-02T08:46:07.910Z,57.40
2022-08-02T08:47:14.738Z,57.35
2022-08-02T08:48:30.518Z,57.31
2022-08-02T08:49:51.157Z,57.54
2022-08-02T08:51:02.512Z,57.42
2022-08-02T08:52:09.431Z,57.42
2022-08-02T08:53:18.621Z,57.45
2022-08-02T08:54:30.731Z,57.69
2022-08-02T08:55:37.923Z,57.68
2022-08-02T08:56:43.783Z,57.52
2022-08-02T08:57:50.678Z,57.60
2022-08-02T08:58:56.466Z,57.55
2022-08-02T09:00:05.839Z,57.59
2022-08-02T09:01:12.003Z,57.44
2022-08-02T09:02:24.723Z,57.44
2022-08-02T09:03:35.406Z,57.41
2022-08-02T09:04:41.507Z,57.30
2022-08-02T09:06:03.130Z,57.54
2022-08-02T09:07:11.908Z,57.46
2022-08-02T09:08:22.610Z,57.49
2022-08-02T09:09:29.208Z,57.37
2022-08-02T09:10:42.286Z,57.58
2022-08-02T09:11:48.346Z,57.85
2022-08-02T09:13:38.342Z,58.09
2022-08-02T09:14:37.237Z,58.19
2022-08-02T09:15:43.645Z,58.21
2022-08-02T09:16:49.850Z,58.05
2022-08-02T09:17:56.014Z,58.13
2022-08-02T09:19:03.116Z,57.96
2022-08-02T09:20:17.296Z,57.94
2022-08-02T09:21:24.759Z,57.77
2022-08-02T09:22:31.176Z,57.71
2022-08-02T09:23:39.384Z,57.68
2022-08-02T09:24:46.712Z,57.85
2022-08-02T09:26:15.102Z,57.91
2022-08-02T09:27:27.087Z,57.98
2022-08-02T09:28:40.385Z,57.94
2022-08-02T09:30:12.105Z,57.94
2022-08-02T09:31:22.840Z,57.86
2022-08-02T09:32:30.365Z,57.87
2022-08-02T09:33:36.572Z,57.97
2022-08-02T09:34:55.143Z,57.90
2022-08-02T09:36:08.468Z,58.05
2022-08-02T09:37:32.063Z,58.48
2022-08-02T09:38:38.679Z,58.48
2022-08-02T09:39:48.018Z,58.40
2022-08-02T09:40:54.683Z,58.25
2022-08-02T09:42:11.146Z,58.17
2022-08-02T09:43:17.860Z,58.30
2022-08-02T09:44:25.579Z,58.37
2022-08-02T09:45:38.702Z,58.34
2022-08-02T09:46:47.674Z,58.36
2022-08-02T09:47:53.911Z,58.41
2022-08-02T09:49:17.635Z,58.40
2022-08-02T09:50:25.056Z,58.25
2022-08-02T09:51:38.298Z,58.17
2022-08-02T09:52:45.861Z,58.21
2022-08-02T09:54:05.955Z,58.13
2022-08-02T09:55:16.764Z,58.25
2022-08-02T09:56:29.655Z,58.31
2022-08-02T09:57:51.096Z,58.23
2022-08-02T09:59:01.581Z,58.30
2022-08-02T10:00:18.119Z,58.35
2022-08-02T10:01:37.335Z,58.48
2022-08-02T10:03:21.608Z,58.66
2022-08-02T10:04:31.521Z,58.82
2022-08-02T10:05:55.443Z,58.86
2022-08-02T10:07:04.802Z,59.03
2022-08-02T10:08:13.709Z,59.11
2022-08-02T10:09:21.193Z,59.32
2022-08-02T10:10:27.413Z,59.08
2022-08-02T10:11:33.685Z,59.18
2022-08-02T10:12:39.630Z,59.15
2022-08-02T10:13:45.219Z,59.06
2022-08-02T10:14:54.629Z,59.20
2022-08-02T10:16:00.244Z,59.04
2022-08-02T10:17:09.336Z,59.09
2022-08-02T10:18:37.108Z,58.86
2022-08-02T10:20:02.037Z,58.69
2022-08-02T10:21:21.498Z,58.73
2022-08-02T10:22:27.926Z,58.85
2022-08-02T10:23:35.750Z,58.78
2022-08-02T10:24:47.779Z,58.82
2022-08-02T10:25:56.208Z,59.08
2022-08-02T10:27:13.400Z,59.20
2022-08-02T10:28:33.003Z,59.46
2022-08-02T10:29:50.502Z,59.67
2022-08-02T10:31:04.809Z,59.62
2022-08-02T10:32:14.316Z,59.42
2022-08-02T10:33:27.481Z,59.36
2022-08-02T10:34:46.815Z,59.43
2022-08-02T10:36:06.819Z,59.49
2022-08-02T10:37:18.129Z,59.58
2022-08-02T10:38:26.179Z,59.50
2022-08-02T10:39:56.968Z,59.49
2022-08-02T10:41:03.405Z,59.36
2022-08-02T10:42:11.380Z,59.35
2022-08-02T10:43:39.807Z,59.41
2022-08-02T10:44:48.657Z,59.42
2022-08-02T10:45:55.616Z,59.46
2022-08-02T10:47:18.552Z,59.56
2022-08-02T10:48:29.178Z,59.36
2022-08-02T10:49:39.719Z,59.35
2022-08-02T10:50:50.916Z,59.53
2022-08-02T10:52:03.989Z,59.69
2022-08-02T10:53:25.501Z,59.75
2022-08-02T10:54:53.595Z,59.88
2022-08-02T10:56:09.238Z,60.16
2022-08-02T10:57:22.524Z,60.36
2022-08-02T10:58:30.576Z,60.60
2022-08-02T10:59:38.297Z,60.46
2022-08-02T11:00:44.713Z,60.52
2022-08-02T11:01:50.895Z,60.47
2022-08-02T11:02:57.569Z,60.38
2022-08-02T11:04:07.073Z,60.29
2022-08-02T11:05:42.872Z,60.31
2022-08-02T11:07:15.677Z,60.45
2022-08-02T11:08:23.291Z,60.79
2022-08-02T11:09:34.896Z,60.78
2022-08-02T11:10:42.211Z,60.51
2022-08-02T11:12:12.283Z,60.64
2022-08-02T11:13:22.899Z,60.34
2022-08-02T11:14:32.484Z,60.29
2022-08-02T11:15:51.040Z,60.48
2022-08-02T11:17:00.149Z,60.83
2022-08-02T11:18:06.210Z,61.09
2022-08-02T11:19:15.214Z,61.13
2022-08-02T11:20:22.386Z,61.26
2022-08-02T11:21:32.605Z,61.14
2022-08-02T11:22:38.557Z,61.03
2022-08-02T11:23:46.104Z,61.06
2022-08-02T11:24:53.516Z,61.00
2022-08-02T11:26:03.895Z,60.89
2022-08-02T11:27:25.812Z,60.97
2022-08-02T11:28:35.024Z,60.99
2022-08-02T11:29:45.069Z,60.85
2022-08-02T11:30:58.571Z,61.00
2022-08-02T11:32:04.498Z,61.04
2022-08-02T11:33:11.139Z,61.05
2022-08-02T11:34:37.050Z,61.32
2022-08-02T11:35:44.901Z,61.23
2022-08-02T11:36:53.869Z,61.53
2022-08-02T11:38:00.064Z,61.79
2022-08-02T11:39:20.777Z,61.77
2022-08-02T11:40:35.475Z,61.53
2022-08-02T11:41:47.409Z,61.43
2022-08-02T11:42:54.422Z,61.35
2022-08-02T11:44:01.244Z,61.21
2022-08-02T11:45:13.302Z,61.12
2022-08-02T11:46:30.301Z,61.17
2022-08-02T11:47:55.679Z,61.16
2022-08-02T11:49:23.752Z,61.39
2022-08-02T11:50:31.384Z,61.65
2022-08-02T11:51:39.755Z,61.71
2022-08-02T11:52:51.470Z,61.89
2022-08-02T11:53:58.699Z,62.02
2022-08-02T11:55:08.797Z,62.24
2022-08-02T11:56:21.785Z,62.26
2022-08-02T11:58:03.321Z,62.19
2022-08-02T11:59:14.528Z,61.96
2022-08-02T12:00:22.746Z,61.96
2022-08-02T12:01:45.601Z,62.02
2022-08-02T12:02:55.278Z,62.05
2022-08-02T12:04:02.879Z,62.08
2022-08-02T12:05:11.601Z,62.09
2022-08-02T12:06:19.839Z,61.96
2022-08-02T12:07:34.678Z,62.00
2022-08-02T12:08:52.011Z,62.14
2022-08-02T12:10:19.066Z,62.44
2022-08-02T12:11:26.449Z,62.59
2022-08-02T12:12:56.969Z,62.67
2022-08-02T12:14:02.833Z,62.51
2022-08-02T12:15:09.678Z,62.36
2022-08-02T12:16:35.193Z,62.44
2022-08-02T12:17:59.988Z,62.44
2022-08-02T12:19:27.431Z,62.39
2022-08-02T12:20:37.566Z,62.49
2022-08-02T12:21:45.313Z,62.14
2022-08-02T12:22:52.192Z,62.15
2022-08-02T12:24:01.237Z,61.99
2022-08-02T12:25:34.660Z,62.31
2022-08-02T12:26:49.062Z,62.49
2022-08-02T12:27:56.671Z,62.58
2022-08-02T12:29:02.940Z,62.60
2022-08-02T12:30:17.183Z,62.43
2022-08-02T12:31:57.556Z,62.33
2022-08-02T12:33:13.076Z,62.15
2022-08-02T12:34:21.538Z,62.13
2022-08-02T12:35:42.384Z,62.21
2022-08-02T12:37:13.828Z,62.31
2022-08-02T12:38:20.083Z,62.36
2022-08-02T12:40:25.634Z,62.24
2022-08-02T12:41:32.759Z,62.24
2022-08-02T12:42:48.448Z,62.42
2022-08-02T12:43:56.010Z,62.55
2022-08-02T12:45:04.874Z,62.52
2022-08-02T12:46:17.511Z,62.58
2022-08-02T12:47:25.193Z,62.61
2022-08-02T12:49:02.302Z,62.53
2022-08-02T12:50:21.528Z,62.32
2022-08-02T12:51:51.395Z,62.24
2022-08-02T12:53:10.033Z,61.98
2022-08-02T12:54:31.717Z,62.09
2022-08-02T12:56:02.107Z,62.18
2022-08-02T12:57:20.259Z,62.32
2022-08-02T12:58:26.215Z,62.23
2022-08-02T12:59:39.893Z,62.21
2022-08-02T13:01:02.586Z,62.39
2022-08-02T13:02:11.953Z,62.57
2022-08-02T13:04:11.133Z,62.66
2022-08-02T13:04:50.379Z,62.66
2022-08-02T13:05:59.324Z,62.93
2022-08-02T13:07:14.686Z,63.07
2022-08-02T13:08:20.515Z,62.98
2022-08-02T13:09:29.421Z,63.14
2022-08-02T13:10:36.272Z,62.98
2022-08-02T13:11:43.995Z,62.90
2022-08-02T13:12:50.409Z,62.92
2022-08-02T13:13:59.102Z,62.91
2022-08-02T13:15:12.329Z,63.05
2022-08-02T13:16:35.562Z,62.98
2022-08-02T13:17:41.810Z,62.78
2022-08-02T13:18:47.896Z,62.86
2022-08-02T13:19:53.767Z,62.73
2022-08-02T13:21:00.153Z,62.62
2022-08-02T13:22:08.614Z,62.49
2022-08-02T13:23:21.770Z,62.33
2022-08-02T13:24:40.226Z,62.24
2022-08-02T13:25:59.017Z,62.08
2022-08-02T13:27:07.973Z,62.01
2022-08-02T13:28:15.870Z,61.82
2022-08-02T13:29:25.660Z,61.65
2022-08-02T13:30:37.331Z,61.54
2022-08-02T13:31:43.645Z,61.63
2022-08-02T13:32:49.846Z,61.52
2022-08-02T13:33:59.116Z,61.40
2022-08-02T13:35:18.087Z,61.29
2022-08-02T13:36:25.826Z,61.25
2022-08-02T13:37:34.937Z,61.37
2022-08-02T13:38:48.032Z,61.49
2022-08-02T13:40:20.076Z,61.46
2022-08-02T13:41:25.143Z,61.58
2022-08-02T13:42:32.679Z,61.60
2022-08-02T13:43:53.331Z,61.43
2022-08-02T13:45:13.271Z,61.08
2022-08-02T13:46:28.686Z,60.80
2022-08-02T13:48:04.608Z,60.45
2022-08-02T13:49:07.665Z,59.83
2022-08-02T13:50:14.888Z,59.35
2022-08-02T13:51:21.278Z,58.89
2022-08-02T13:52:27.134Z,58.47
2022-08-02T13:53:34.536Z,58.08
2022-08-02T13:54:41.111Z,57.66
2022-08-02T13:55:47.797Z,57.32
2022-08-02T13:56:54.402Z,57.10
2022-08-02T13:58:01.936Z,56.44
2022-08-02T13:59:54.780Z,55.96
2022-08-02T14:00:37.762Z,55.14
2022-08-02T14:01:44.668Z,54.94
2022-08-02T14:02:51.679Z,54.70
2022-08-02T14:04:08.508Z,54.40
2022-08-02T14:05:19.302Z,53.64
2022-08-02T14:06:46.458Z,53.64
2022-08-02T14:07:53.807Z,52.95
2022-08-02T14:09:00.869Z,52.58
2022-08-02T14:10:08.467Z,51.79
2022-08-02T14:11:18.166Z,51.39
2022-08-02T14:12:28.225Z,51.92
2022-08-02T14:13:36.817Z,51.62
2022-08-02T14:14:43.186Z,51.90
2022-08-02T14:15:50.152Z,52.61
2022-08-02T14:16:56.784Z,52.77
2022-08-02T14:18:06.438Z,52.29
2022-08-02T14:19:16.598Z,52.25
2022-08-02T14:20:30.366Z,52.41
2022-08-02T14:21:46.954Z,52.19
2022-08-02T14:22:57.524Z,51.76
2022-08-02T14:24:07.207Z,50.94
2022-08-02T14:25:13.576Z,50.87
2022-08-02T14:26:27.125Z,51.05
2022-08-02T14:27:39.463Z,50.12
2022-08-02T14:28:47.468Z,50.16
2022-08-02T14:29:59.536Z,49.66
2022-08-02T14:31:05.807Z,48.95
2022-08-02T14:32:14.095Z,47.99
2022-08-02T14:33:24.817Z,47.78
2022-08-02T14:34:36.179Z,47.54
2022-08-02T14:35:43.423Z,46.77
2022-08-02T14:36:53.858Z,46.73
2022-08-02T14:38:04.667Z,46.67
2022-08-02T14:39:11.603Z,46.59
2022-08-02T14:40:31.171Z,46.62
2022-08-02T14:41:58.972Z,46.25
2022-08-02T14:43:08.984Z,46.34
2022-08-02T14:44:16.601Z,46.33
2022-08-02T14:45:27.588Z,45.64
2022-08-02T14:46:52.923Z,45.52
2022-08-02T14:48:00.176Z,44.88
2022-08-02T14:49:08.211Z,44.66
2022-08-02T14:50:15.171Z,44.40
2022-08-02T14:51:23.033Z,44.43
2022-08-02T14:52:32.361Z,44.35
2022-08-02T14:53:49.493Z,44.09
2022-08-02T14:55:08.705Z,43.45
2022-08-02T14:56:16.769Z,43.05
2022-08-02T14:57:26.142Z,42.51
2022-08-02T14:58:33.960Z,42.05
2022-08-02T14:59:42.757Z,42.08
2022-08-02T15:00:49.222Z,42.23
2022-08-02T15:02:02.071Z,42.03
2022-08-02T15:03:11.373Z,42.36
2022-08-02T15:04:20.590Z,42.01
2022-08-02T15:05:29.503Z,41.75
2022-08-02T15:06:37.350Z,41.08
2022-08-02T15:07:49.427Z,40.77
2022-08-02T15:08:58.665Z,40.82
2022-08-02T15:10:06.865Z,40.22
2022-08-02T15:11:14.037Z,39.80
2022-08-02T15:12:23.427Z,39.63
2022-08-02T15:13:31.718Z,38.83
2022-08-02T15:14:38.421Z,38.62
2022-08-02T15:15:46.459Z,38.71
2022-08-02T15:16:58.388Z,38.34
2022-08-02T15:18:07.682Z,38.22
2022-08-02T15:19:13.957Z,37.54
2022-08-02T15:20:25.611Z,36.66
2022-08-02T15:21:52.355Z,36.64
2022-08-02T15:23:04.756Z,36.42
2022-08-02T15:24:11.676Z,36.43
2022-08-02T15:25:19.742Z,36.73
2022-08-02T15:26:26.777Z,36.78